Time;durP1;ratioP1;P1;durP2;ratioP2;P2;SDS_P1;SDS_P2;PMS_P1;PMS_P2;Temp;Humidity;BMP_temperature;BMP_pressure;BME280_temperature;BME280_humidity;BME280_pressure;Samples;Min_cycle;Max_cycle;Signal;HPM_P1;HPM_P2
2021/11/27 00:02:03;;;;;;;7.78;4.55;;;17.90;64.10;;;;;;10566183;28;20032;-57
2021/11/27 00:07:04;;;;;;;7.72;4.25;;;17.80;64.20;;;;;;10583941;28;20519;-56
2021/11/27 00:12:06;;;;;;;8.20;4.65;;;17.90;64.10;;;;;;10583735;28;20478;-57
2021/11/27 00:17:06;;;;;;;7.53;4.57;;;17.90;64.00;;;;;;10583725;28;20031;-57
2021/11/27 00:22:07;;;;;;;6.63;3.65;;;17.90;63.90;;;;;;10565047;28;20114;-57
2021/11/27 00:27:09;;;;;;;8.88;5.22;;;17.90;63.90;;;;;;10583295;28;20031;-57
2021/11/27 00:32:09;;;;;;;6.05;4.05;;;17.90;63.90;;;;;;10583022;28;20125;-58
2021/11/27 00:37:10;;;;;;;7.25;4.45;;;17.90;63.90;;;;;;10564389;28;20129;-57
2021/11/27 00:42:11;;;;;;;5.75;3.65;;;17.90;63.80;;;;;;10564348;28;20032;-56
2021/11/27 00:47:12;;;;;;;8.98;4.57;;;17.90;63.90;;;;;;10582445;28;20036;-57
2021/11/27 00:52:12;;;;;;;6.40;3.35;;;17.90;63.80;;;;;;10582409;28;20047;-57
2021/11/27 00:57:14;;;;;;;5.43;3.80;;;17.90;63.80;;;;;;10568458;28;20019;-57
2021/11/27 01:02:15;;;;;;;7.07;3.35;;;17.90;63.70;;;;;;10563773;28;20495;-57
2021/11/27 01:07:15;;;;;;;8.07;4.32;;;17.90;63.60;;;;;;10562941;28;20031;-56
2021/11/27 01:12:16;;;;;;;6.28;3.97;;;17.90;63.70;;;;;;10581025;28;20483;-57
2021/11/27 01:17:18;;;;;;;5.35;3.47;;;17.90;63.80;;;;;;10562362;28;20036;-57
2021/11/27 01:22:21;;;;;;;6.78;4.05;;;17.90;63.80;;;;;;10579520;28;20490;-56
2021/11/27 01:27:24;;;;;;;5.63;3.58;;;17.90;63.70;;;;;;10580880;28;20028;-57
2021/11/27 01:32:24;;;;;;;6.95;3.70;;;17.90;63.80;;;;;;10562901;28;20446;-57
2021/11/27 01:37:25;;;;;;;6.00;3.42;;;17.80;64.10;;;;;;10545186;28;20086;-57
2021/11/27 01:42:26;;;;;;;6.07;3.22;;;17.70;64.30;;;;;;10579632;28;20122;-57
2021/11/27 01:47:27;;;;;;;6.22;3.08;;;17.60;64.50;;;;;;10561983;28;20038;-57
2021/11/27 01:52:28;;;;;;;5.78;3.25;;;17.50;64.70;;;;;;10580257;28;20054;-57
2021/11/27 01:57:29;;;;;;;4.70;3.00;;;17.50;65.00;;;;;;10548267;28;20027;-57
2021/11/27 02:02:30;;;;;;;4.95;2.25;;;17.40;65.20;;;;;;10561499;28;20028;-57
2021/11/27 02:07:31;;;;;;;5.72;3.47;;;17.30;65.30;;;;;;10561559;28;20042;-57
2021/11/27 02:12:32;;;;;;;6.68;3.92;;;17.30;65.50;;;;;;10561544;28;20028;-56
2021/11/27 02:17:33;;;;;;;4.70;2.83;;;17.20;65.60;;;;;;10561188;28;20088;-57
2021/11/27 02:22:35;;;;;;;4.45;2.80;;;17.10;65.70;;;;;;10565877;28;20036;-58
2021/11/27 02:27:36;;;;;;;4.90;2.92;;;17.10;65.80;;;;;;10570009;28;20081;-55
2021/11/27 02:32:36;;;;;;;3.05;1.90;;;17.00;65.90;;;;;;10569440;28;20042;-57
2021/11/27 02:37:37;;;;;;;4.70;2.92;;;17.00;66.00;;;;;;10568972;28;20044;-57
2021/11/27 02:42:39;;;;;;;5.88;2.20;;;17.00;66.00;;;;;;10569332;28;20028;-56
2021/11/27 02:47:40;;;;;;;4.10;2.13;;;16.90;66.10;;;;;;10569361;28;20023;-60
2021/11/27 02:52:42;;;;;;;5.50;2.53;;;16.90;66.10;;;;;;10569153;28;20027;-56
2021/11/27 02:57:43;;;;;;;5.20;2.83;;;16.90;66.20;;;;;;10568548;28;20483;-56
2021/11/27 03:02:45;;;;;;;4.57;2.45;;;16.80;66.20;;;;;;10568528;28;20031;-56
2021/11/27 03:07:46;;;;;;;5.78;2.28;;;16.80;66.30;;;;;;10586515;28;20355;-57
2021/11/27 03:12:48;;;;;;;4.78;2.42;;;16.70;66.30;;;;;;10568108;28;20043;-56
2021/11/27 03:17:49;;;;;;;3.75;2.63;;;16.70;66.40;;;;;;10567759;28;20031;-56
2021/11/27 03:22:50;;;;;;;4.20;2.33;;;16.70;66.40;;;;;;10567313;28;20371;-57
2021/11/27 03:27:50;;;;;;;3.97;2.10;;;16.70;66.50;;;;;;10550597;28;20020;-56
2021/11/27 03:32:51;;;;;;;3.80;2.08;;;16.60;66.50;;;;;;10567144;28;20538;-56
2021/11/27 03:37:52;;;;;;;4.28;2.08;;;16.60;66.60;;;;;;10585255;28;20051;-57
2021/11/27 03:42:53;;;;;;;3.75;1.60;;;16.60;66.60;;;;;;10585083;28;20066;-57
2021/11/27 03:48:07;;;;;;;3.95;2.22;;;16.50;66.70;;;;;;10566714;28;20522;-56
2021/11/27 03:53:11;;;;;;;3.92;1.83;;;16.50;66.80;;;;;;10566918;28;20472;-56
2021/11/27 03:58:13;;;;;;;4.07;2.17;;;16.50;67.40;;;;;;10536731;28;20380;-56
2021/11/27 04:03:18;;;;;;;3.03;1.63;;;16.40;67.30;;;;;;10566101;28;20031;-57
2021/11/27 04:08:20;;;;;;;5.30;2.25;;;16.40;66.70;;;;;;10566197;28;20024;-56
2021/11/27 04:13:22;;;;;;;6.20;2.55;;;16.40;66.70;;;;;;10565624;28;20075;-57
2021/11/27 04:18:23;;;;;;;6.00;2.13;;;16.40;66.80;;;;;;10565436;28;20040;-57
2021/11/27 04:23:25;;;;;;;2.75;1.70;;;16.30;66.70;;;;;;10565262;28;20035;-57
2021/11/27 04:28:25;;;;;;;4.22;1.63;;;16.30;66.70;;;;;;10565158;28;20374;-57
2021/11/27 04:33:27;;;;;;;3.80;2.05;;;16.30;66.80;;;;;;10583158;28;20024;-57
2021/11/27 04:38:28;;;;;;;3.42;1.65;;;16.30;66.80;;;;;;10564505;28;20051;-57
2021/11/27 04:43:29;;;;;;;3.67;1.38;;;16.30;66.80;;;;;;10563900;28;20019;-56
2021/11/27 04:48:30;;;;;;;2.85;1.60;;;16.20;66.70;;;;;;10563720;28;20035;-58
2021/11/27 04:53:31;;;;;;;2.45;1.52;;;16.20;66.80;;;;;;10564097;28;20077;-57
2021/11/27 04:58:32;;;;;;;4.00;1.60;;;16.20;66.80;;;;;;10547155;28;20092;-56
2021/11/27 05:03:33;;;;;;;2.78;1.45;;;16.20;66.90;;;;;;10563642;28;20069;-56
2021/11/27 05:08:33;;;;;;;5.13;1.85;;;16.20;66.70;;;;;;10563365;28;20080;-56
2021/11/27 05:13:39;;;;;;;2.05;1.20;;;16.20;66.90;;;;;;10581537;28;20020;-57
2021/11/27 05:18:40;;;;;;;2.30;1.33;;;16.10;66.80;;;;;;10563666;28;20027;-57
2021/11/27 05:23:41;;;;;;;3.45;1.77;;;16.10;66.80;;;;;;10580951;28;20016;-57
2021/11/27 05:28:42;;;;;;;3.00;1.30;;;16.10;66.80;;;;;;10562494;28;20497;-57
2021/11/27 05:38:47;;;;;;;2.42;1.50;;;16.10;66.90;;;;;;10560902;28;20036;-57
2021/11/27 05:43:49;;;;;;;3.00;1.67;;;16.10;66.90;;;;;;10561902;28;20024;-57
2021/11/27 05:48:50;;;;;;;4.13;1.77;;;16.20;66.40;;;;;;10561194;28;20384;-57
2021/11/27 05:53:51;;;;;;;2.60;1.60;;;16.40;65.80;;;;;;10557777;28;20027;-57
2021/11/27 05:58:51;;;;;;;3.10;1.65;;;16.60;65.40;;;;;;10557994;28;20028;-57
2021/11/27 06:03:53;;;;;;;2.40;1.10;;;16.80;65.00;;;;;;10577230;28;20102;-57
2021/11/27 06:08:54;;;;;;;2.25;1.33;;;16.90;64.60;;;;;;10559396;28;20397;-57
2021/11/27 06:13:55;;;;;;;2.22;1.50;;;17.00;64.30;;;;;;10560019;28;20020;-57
2021/11/27 06:18:56;;;;;;;2.33;1.30;;;17.00;64.00;;;;;;10559340;28;20039;-57
2021/11/27 06:23:58;;;;;;;2.45;1.10;;;17.10;63.90;;;;;;10560574;28;20034;-56
2021/11/27 06:28:58;;;;;;;1.80;1.00;;;17.10;63.80;;;;;;10561119;28;20085;-57
2021/11/27 06:33:59;;;;;;;2.35;1.17;;;17.10;63.70;;;;;;10579184;28;20141;-57
2021/11/27 06:39:00;;;;;;;2.08;1.20;;;17.20;63.70;;;;;;10578900;28;20047;-56
2021/11/27 06:44:01;;;;;;;1.95;0.90;;;17.20;63.60;;;;;;10578634;28;20027;-57
2021/11/27 06:49:01;;;;;;;3.17;1.27;;;17.20;63.40;;;;;;10542949;28;20428;-57
2021/11/27 06:54:02;;;;;;;1.83;0.70;;;17.20;63.40;;;;;;10559986;28;20637;-58
2021/11/27 06:59:03;;;;;;;2.00;0.95;;;17.30;63.40;;;;;;10542737;28;20042;-57
2021/11/27 07:04:04;;;;;;;2.35;1.00;;;17.30;63.20;;;;;;10559969;28;20024;-57
2021/11/27 07:09:05;;;;;;;1.83;0.70;;;17.40;62.80;;;;;;10561803;28;20483;-56
2021/11/27 07:14:05;;;;;;;2.13;0.80;;;17.50;62.50;;;;;;10572156;28;20059;-57
2021/11/27 07:19:06;;;;;;;1.35;0.60;;;17.60;62.40;;;;;;10570709;28;20054;-57
2021/11/27 07:24:07;;;;;;;1.55;1.10;;;17.60;62.30;;;;;;10580861;28;20024;-58
2021/11/27 07:29:08;;;;;;;4.43;0.90;;;17.60;62.50;;;;;;10564830;28;20032;-56
2021/11/27 07:34:09;;;;;;;1.42;0.80;;;17.80;62.20;;;;;;10566425;28;20094;-57
2021/11/27 07:39:10;;;;;;;4.05;0.93;;;17.80;62.20;;;;;;10541011;28;20055;-57
2021/11/27 07:44:11;;;;;;;1.02;0.65;;;17.90;61.40;;;;;;10542181;28;20020;-58
2021/11/27 07:49:11;;;;;;;2.40;0.75;;;17.90;61.30;;;;;;10541886;28;20027;-57
2021/11/27 07:54:12;;;;;;;1.17;0.50;;;18.00;61.30;;;;;;10540505;28;20036;-58
2021/11/27 07:59:14;;;;;;;1.40;0.60;;;18.00;61.10;;;;;;10525444;28;20544;-57
2021/11/27 08:04:15;;;;;;;2.45;0.80;;;18.00;61.10;;;;;;10538077;28;20119;-56
2021/11/27 08:09:16;;;;;;;1.85;0.75;;;18.00;61.00;;;;;;10537460;28;20038;-56
2021/11/27 08:14:17;;;;;;;0.85;0.50;;;18.00;61.00;;;;;;10537508;28;20042;-57
2021/11/27 08:19:17;;;;;;;1.60;0.52;;;18.00;61.00;;;;;;10535062;28;20031;-56
2021/11/27 08:24:18;;;;;;;1.40;0.60;;;18.00;60.80;;;;;;10539216;28;20460;-58
2021/11/27 08:29:19;;;;;;;2.45;0.70;;;18.10;60.90;;;;;;10540883;28;20103;-57
2021/11/27 08:34:19;;;;;;;1.63;0.60;;;18.10;60.80;;;;;;10540820;28;20115;-58
2021/11/27 08:39:20;;;;;;;2.25;0.52;;;18.10;60.80;;;;;;10539020;28;20044;-57
2021/11/27 08:44:21;;;;;;;1.15;0.52;;;18.20;60.80;;;;;;10539051;28;20031;-58
2021/11/27 08:49:23;;;;;;;1.02;0.50;;;18.10;60.60;;;;;;10538781;28;20099;-58
2021/11/27 08:54:24;;;;;;;1.05;0.50;;;18.20;60.70;;;;;;10538937;28;20077;-57
2021/11/27 08:59:25;;;;;;;2.05;0.65;;;18.20;60.60;;;;;;10539663;28;20039;-57
2021/11/27 09:04:25;;;;;;;0.75;0.30;;;18.20;60.50;;;;;;10521347;28;20024;-58
2021/11/27 09:09:27;;;;;;;1.95;0.65;;;18.20;60.50;;;;;;10539286;28;20028;-57
2021/11/27 09:14:28;;;;;;;1.50;0.52;;;18.20;60.40;;;;;;10538282;28;20055;-57
2021/11/27 09:19:28;;;;;;;1.92;0.70;;;18.20;60.50;;;;;;10537424;28;20028;-56
2021/11/27 09:24:29;;;;;;;1.73;0.50;;;18.20;60.50;;;;;;10536914;28;20035;-57
2021/11/27 09:29:31;;;;;;;1.85;0.85;;;18.20;60.60;;;;;;10538275;28;20460;-57
2021/11/27 09:34:32;;;;;;;1.63;0.50;;;18.30;60.50;;;;;;10536914;28;20032;-57
2021/11/27 09:39:34;;;;;;;0.70;0.32;;;18.20;60.40;;;;;;10527492;28;20506;-57
2021/11/27 09:44:36;;;;;;;1.48;0.40;;;18.20;60.90;;;;;;10533263;28;20024;-58
2021/11/27 09:49:37;;;;;;;3.42;0.63;;;18.10;61.50;;;;;;10535620;28;20403;-58
2021/11/27 09:54:39;;;;;;;2.88;0.63;;;18.00;63.40;;;;;;10534923;28;20115;-58
2021/11/27 09:59:42;;;;;;;2.78;0.60;;;17.90;64.50;;;;;;10515723;28;20548;-57
2021/11/27 10:04:52;;;;;;;3.03;0.80;;;17.80;65.60;;;;;;10517608;28;20503;-60
2021/11/27 10:09:53;;;;;;;5.28;0.50;;;17.70;66.60;;;;;;10510554;28;20429;-57
2021/11/27 10:14:53;;;;;;;4.57;0.60;;;17.70;67.10;;;;;;10533763;28;20028;-58
2021/11/27 10:20:00;;;;;;;2.60;0.50;;;17.80;67.10;;;;;;10534622;28;20024;-58
2021/11/27 10:25:01;;;;;;;1.95;0.50;;;17.90;67.20;;;;;;10527160;28;20111;-58
2021/11/27 10:30:10;;;;;;;1.42;0.40;;;17.90;67.80;;;;;;10532547;28;20027;-58
2021/11/27 10:35:20;;;;;;;1.30;0.38;;;18.00;67.80;;;;;;10535769;28;20598;-58
2021/11/27 10:40:29;;;;;;;3.88;0.60;;;18.10;67.70;;;;;;10555455;28;20038;-57
2021/11/27 10:45:36;;;;;;;1.38;0.43;;;18.00;67.10;;;;;;10567374;28;20020;-58
2021/11/27 10:50:47;;;;;;;0.65;0.40;;;18.00;67.60;;;;;;10564171;28;20114;-59
2021/11/27 10:55:48;;;;;;;2.20;0.60;;;18.00;67.80;;;;;;10550212;28;20023;-58
2021/11/27 11:00:50;;;;;;;1.25;0.68;;;18.10;67.50;;;;;;10567330;28;20032;-58
2021/11/27 11:05:51;;;;;;;2.45;0.52;;;18.10;67.70;;;;;;10566632;28;20063;-59
2021/11/27 11:10:52;;;;;;;1.67;0.60;;;18.10;67.90;;;;;;10566441;28;20146;-57
2021/11/27 11:15:53;;;;;;;2.15;0.52;;;18.10;67.80;;;;;;10574416;28;20440;-58
2021/11/27 11:20:58;;;;;;;2.03;0.50;;;18.10;67.80;;;;;;10567256;28;20032;-58
2021/11/27 11:26:15;;;;;;;0.63;0.30;;;18.10;67.30;;;;;;10563301;28;20071;-58
2021/11/27 11:31:23;;;;;;;2.67;0.82;;;18.10;67.00;;;;;;10561366;28;20067;-58
2021/11/27 11:36:25;;;;;;;0.60;0.30;;;18.10;66.70;;;;;;10546559;28;20046;-58
2021/11/27 11:41:29;;;;;;;1.48;0.60;;;18.10;66.70;;;;;;10561223;28;20032;-58
2021/11/27 11:46:29;;;;;;;1.65;0.57;;;18.20;66.50;;;;;;10567952;28;20032;-58
2021/11/27 11:51:53;;;;;;;1.35;0.60;;;18.20;66.50;;;;;;10583570;28;20432;-58
2021/11/27 11:57:08;;;;;;;1.48;0.60;;;18.20;66.20;;;;;;10567882;28;20043;-59
2021/11/27 12:02:28;;;;;;;1.13;0.68;;;18.30;66.10;;;;;;10566657;28;20590;-59
2021/11/27 12:07:44;;;;;;;0.77;0.30;;;18.30;66.10;;;;;;10556332;28;20023;-57
2021/11/27 12:13:05;;;;;;;0.93;0.43;;;18.20;65.80;;;;;;10584524;28;20023;-59
2021/11/27 12:18:14;;;;;;;1.42;0.80;;;18.20;65.70;;;;;;10582766;28;20043;-60
2021/11/27 12:23:45;;;;;;;2.60;0.68;;;18.30;65.00;;;;;;10566627;28;20035;-61
2021/11/27 12:28:48;;;;;;;4.38;0.75;;;18.50;64.60;;;;;;10579024;28;20075;-59
2021/11/27 12:34:02;;;;;;;3.17;0.70;;;18.60;64.40;;;;;;10580828;28;20114;-60
2021/11/27 12:39:20;;;;;;;3.03;0.73;;;18.60;64.10;;;;;;10579920;28;20032;-61
2021/11/27 12:44:29;;;;;;;3.05;1.10;;;18.70;64.10;;;;;;10572457;28;20054;-61
2021/11/27 12:49:32;;;;;;;1.45;0.57;;;18.60;64.20;;;;;;10582705;28;20474;-59
2021/11/27 12:54:33;;;;;;;2.47;0.73;;;18.60;64.10;;;;;;10582701;28;20363;-59
2021/11/27 12:59:35;;;;;;;3.63;0.73;;;18.60;64.00;;;;;;10580482;28;20102;-59
2021/11/27 13:04:36;;;;;;;3.20;0.90;;;18.70;64.10;;;;;;10567207;27;20023;-59
2021/11/27 13:09:37;;;;;;;2.17;0.80;;;18.60;64.10;;;;;;10582080;28;20028;-60
2021/11/27 13:14:38;;;;;;;6.07;1.17;;;18.70;64.30;;;;;;10562956;28;20072;-61
2021/11/27 13:19:45;;;;;;;8.25;1.48;;;18.70;64.00;;;;;;10549591;28;20102;-61
2021/11/27 13:25:08;;;;;;;4.85;1.33;;;18.80;63.80;;;;;;10581058;28;20050;-60
2021/11/27 13:30:15;;;;;;;8.73;1.70;;;18.70;63.80;;;;;;10559642;28;20048;-60
2021/11/27 13:35:22;;;;;;;10.77;1.67;;;18.70;63.80;;;;;;10562489;28;20042;-59
2021/11/27 13:40:33;;;;;;;8.13;1.80;;;18.70;64.40;;;;;;10577708;28;20081;-60
2021/11/27 13:45:34;;;;;;;7.03;1.50;;;18.60;63.70;;;;;;10545008;28;20018;-59
2021/11/27 13:50:47;;;;;;;6.28;1.77;;;18.60;63.40;;;;;;10561711;28;20027;-58
2021/11/27 13:55:53;;;;;;;7.10;2.20;;;18.60;63.80;;;;;;10561712;28;20027;-59
2021/11/27 14:01:00;;;;;;;5.65;1.58;;;18.60;63.50;;;;;;10561036;28;20119;-58
2021/11/27 14:06:14;;;;;;;5.22;1.70;;;18.60;63.40;;;;;;10558590;28;20023;-58
2021/11/27 14:11:14;;;;;;;6.30;1.65;;;18.60;63.30;;;;;;10577705;28;20031;-58
2021/11/27 14:16:22;;;;;;;4.05;1.40;;;18.70;63.30;;;;;;10575859;28;20435;-58
2021/11/27 14:21:23;;;;;;;7.00;1.33;;;18.70;63.40;;;;;;10556668;28;20454;-58
2021/11/27 14:26:26;;;;;;;4.05;1.33;;;18.70;63.20;;;;;;10557323;28;20098;-58
2021/11/27 14:31:36;;;;;;;4.13;1.33;;;18.60;63.20;;;;;;10577645;28;20073;-58
2021/11/27 14:36:43;;;;;;;6.65;1.45;;;18.60;63.20;;;;;;10561259;28;20059;-58
2021/11/27 14:41:44;;;;;;;3.55;1.48;;;18.60;63.10;;;;;;10579712;28;20067;-59
2021/11/27 14:46:50;;;;;;;4.18;1.38;;;18.60;63.10;;;;;;10561161;28;20543;-59
2021/11/27 14:52:18;;;;;;;4.13;1.30;;;18.60;63.00;;;;;;10579106;28;20030;-58
2021/11/27 14:57:26;;;;;;;4.38;1.27;;;18.60;63.10;;;;;;10553944;28;20495;-59
2021/11/27 15:02:32;;;;;;;3.33;1.77;;;18.70;63.00;;;;;;10578835;28;20379;-59
2021/11/27 15:07:35;;;;;;;4.55;2.10;;;18.70;63.00;;;;;;10561184;28;20172;-58
2021/11/27 15:12:37;;;;;;;5.38;1.58;;;18.60;62.90;;;;;;10560921;28;20371;-58
2021/11/27 15:17:42;;;;;;;3.00;1.10;;;18.70;62.90;;;;;;10560674;28;20071;-58
2021/11/27 15:22:42;;;;;;;2.40;1.20;;;18.60;62.90;;;;;;10560832;28;20036;-58
2021/11/27 15:27:43;;;;;;;3.78;1.15;;;18.60;62.80;;;;;;10561757;28;20107;-58
2021/11/27 15:32:44;;;;;;;3.45;1.00;;;18.70;62.90;;;;;;10567802;28;20102;-58
2021/11/27 15:37:48;;;;;;;2.90;1.10;;;18.60;62.80;;;;;;10574966;28;20127;-58
2021/11/27 15:42:49;;;;;;;6.90;1.60;;;18.70;62.90;;;;;;10560689;28;20032;-57
2021/11/27 15:47:49;;;;;;;10.55;2.30;;;18.60;62.70;;;;;;10567631;28;20023;-59
2021/11/27 15:52:51;;;;;;;15.10;2.72;;;18.60;62.70;;;;;;10566679;28;20436;-57
2021/11/27 15:57:52;;;;;;;19.42;3.60;;;18.70;62.90;;;;;;10557212;28;20036;-54
2021/11/27 16:02:53;;;;;;;17.40;3.00;;;18.80;62.60;;;;;;10584624;28;20098;-50
2021/11/27 16:07:54;;;;;;;20.85;3.33;;;19.00;62.30;;;;;;10571367;28;20144;-55
2021/11/27 16:12:55;;;;;;;22.67;11.50;;;19.10;62.50;;;;;;10565686;28;20032;-56
2021/11/27 16:17:56;;;;;;;20.95;13.00;;;19.60;62.20;;;;;;10574037;28;20027;-56
2021/11/27 16:22:56;;;;;;;15.98;9.77;;;19.20;63.20;;;;;;10582807;28;20039;-54
2021/11/27 16:27:57;;;;;;;17.55;9.68;;;19.00;63.80;;;;;;10564786;28;20456;-55
2021/11/27 16:32:58;;;;;;;15.48;8.70;;;18.90;64.00;;;;;;10582950;28;20148;-55
2021/11/27 16:38:00;;;;;;;13.80;12.20;;;18.90;64.00;;;;;;10547873;28;20051;-56
2021/11/27 16:43:01;;;;;;;12.20;10.00;;;18.90;64.40;;;;;;10527432;28;20031;-54
2021/11/27 16:48:02;;;;;;;11.45;10.30;;;18.80;63.20;;;;;;10534927;28;20063;-56
2021/11/27 16:53:04;;;;;;;12.48;7.97;;;18.70;62.70;;;;;;10537612;28;20020;-56
2021/11/27 16:58:05;;;;;;;13.55;7.15;;;18.80;61.80;;;;;;10555685;28;20031;-56
2021/11/27 17:03:06;;;;;;;11.85;7.03;;;18.80;62.50;;;;;;10581384;28;20032;-56
2021/11/27 17:08:08;;;;;;;10.52;6.43;;;18.90;63.00;;;;;;10582233;28;20028;-56
2021/11/27 17:13:11;;;;;;;11.35;6.35;;;19.00;63.90;;;;;;10582141;28;20035;-55
2021/11/27 17:18:14;;;;;;;13.02;6.85;;;19.00;64.40;;;;;;10581605;28;20106;-55
2021/11/27 17:23:15;;;;;;;11.10;5.90;;;19.00;64.60;;;;;;10522210;28;20499;-56
2021/11/27 17:28:17;;;;;;;9.48;5.80;;;19.00;64.00;;;;;;10559025;28;20031;-55
2021/11/27 17:33:20;;;;;;;7.85;5.55;;;19.00;63.90;;;;;;10556959;28;20031;-55
2021/11/27 17:38:21;;;;;;;6.80;5.07;;;19.00;64.00;;;;;;10562814;28;20470;-53
2021/11/27 17:43:22;;;;;;;9.63;5.00;;;19.00;63.90;;;;;;10563670;28;20114;-55
2021/11/27 17:48:22;;;;;;;5.82;5.10;;;19.00;64.00;;;;;;10580210;28;20456;-56
2021/11/27 17:53:23;;;;;;;9.35;5.38;;;18.90;64.00;;;;;;10580431;28;20023;-55
2021/11/27 17:58:24;;;;;;;8.82;5.53;;;18.90;64.00;;;;;;10562267;28;20489;-56
2021/11/27 18:03:25;;;;;;;12.23;4.90;;;18.90;63.80;;;;;;10580383;28;20034;-56
2021/11/27 18:08:25;;;;;;;7.30;4.80;;;18.90;63.60;;;;;;10561098;28;20020;-56
2021/11/27 18:13:27;;;;;;;7.68;4.78;;;18.90;63.70;;;;;;10579282;28;20029;-55
2021/11/27 18:18:28;;;;;;;7.18;4.40;;;18.90;63.60;;;;;;10579150;28;20046;-56
2021/11/27 18:23:35;;;;;;;8.07;4.82;;;18.90;64.00;;;;;;10573505;28;20107;-55
2021/11/27 18:28:36;;;;;;;5.40;4.38;;;18.80;64.00;;;;;;10544529;28;20077;-54
2021/11/27 18:33:38;;;;;;;6.32;4.35;;;18.90;63.80;;;;;;10538030;28;20063;-54
2021/11/27 18:38:45;;;;;;;6.50;3.90;;;18.90;63.80;;;;;;10550128;28;20050;-55
2021/11/27 18:43:46;;;;;;;7.00;3.63;;;18.90;63.60;;;;;;10523191;28;20025;-55
2021/11/27 18:48:47;;;;;;;8.20;4.40;;;18.90;63.80;;;;;;10551920;28;20020;-55
2021/11/27 18:53:48;;;;;;;5.60;3.60;;;18.90;63.70;;;;;;10564796;28;20099;-54
2021/11/27 18:58:49;;;;;;;6.38;4.32;;;18.90;63.90;;;;;;10572127;28;20030;-54
2021/11/27 19:03:49;;;;;;;5.95;3.90;;;18.90;63.90;;;;;;10558479;28;20031;-54
2021/11/27 19:08:50;;;;;;;6.00;3.83;;;18.80;64.00;;;;;;10565950;28;20099;-53
2021/11/27 19:13:52;;;;;;;3.85;2.85;;;18.80;64.10;;;;;;10561277;28;20034;-52
2021/11/27 19:18:53;;;;;;;10.35;4.15;;;18.90;64.10;;;;;;10527977;28;20032;-54
2021/11/27 19:23:54;;;;;;;7.18;4.28;;;18.90;64.20;;;;;;10537947;28;20031;-54
2021/11/27 19:28:54;;;;;;;5.43;4.00;;;18.90;64.10;;;;;;10551377;28;20034;-53
2021/11/27 19:33:55;;;;;;;4.90;4.22;;;18.80;64.20;;;;;;10579833;28;20035;-54
2021/11/27 19:38:57;;;;;;;10.32;3.38;;;18.80;64.10;;;;;;10547600;28;20112;-53
2021/11/27 19:43:57;;;;;;;4.18;3.25;;;18.90;64.10;;;;;;10558268;28;20113;-54
2021/11/27 19:48:58;;;;;;;5.50;3.33;;;18.80;64.10;;;;;;10545775;28;20446;-55
2021/11/27 19:53:59;;;;;;;6.28;3.08;;;18.90;64.20;;;;;;10563288;28;20380;-53
2021/11/27 19:59:03;;;;;;;5.60;3.05;;;18.80;64.10;;;;;;10568693;28;20088;-54
2021/11/27 20:04:04;;;;;;;4.55;3.00;;;18.90;64.00;;;;;;10546303;28;20020;-55
2021/11/27 20:09:05;;;;;;;4.20;3.00;;;18.80;64.20;;;;;;10566515;28;20372;-55
2021/11/27 20:14:07;;;;;;;4.35;3.05;;;18.80;64.20;;;;;;10558970;28;20035;-55
2021/11/27 20:19:08;;;;;;;4.13;3.15;;;18.70;64.60;;;;;;10583841;28;20023;-54
2021/11/27 20:24:09;;;;;;;6.05;5.03;;;18.50;64.80;;;;;;10584097;28;20031;-54
2021/11/27 20:29:10;;;;;;;16.30;9.55;;;18.40;65.20;;;;;;10581629;28;20024;-52
2021/11/27 20:34:12;;;;;;;19.98;12.95;;;18.30;65.30;;;;;;10583577;28;20364;-53
2021/11/27 20:39:13;;;;;;;21.52;12.48;;;18.20;66.00;;;;;;10582957;28;20039;-54
2021/11/27 20:44:14;;;;;;;21.10;13.52;;;18.00;66.30;;;;;;10562931;28;20042;-53
2021/11/27 20:49:15;;;;;;;21.38;12.25;;;17.90;66.60;;;;;;10580386;28;20506;-54
2021/11/27 20:54:16;;;;;;;17.92;13.13;;;17.80;66.80;;;;;;10574939;28;20487;-53
2021/11/27 20:59:17;;;;;;;19.63;12.23;;;17.70;66.90;;;;;;10561598;28;20082;-54
2021/11/27 21:04:18;;;;;;;17.15;12.45;;;17.70;67.10;;;;;;10561338;28;20076;-54
2021/11/27 21:09:19;;;;;;;16.30;11.43;;;17.60;67.30;;;;;;10561249;28;20019;-51
2021/11/27 21:14:21;;;;;;;18.08;11.57;;;17.50;67.40;;;;;;10581413;28;20037;-54
2021/11/27 21:19:21;;;;;;;16.13;10.40;;;17.50;67.50;;;;;;10563455;28;20027;-54
2021/11/27 21:24:22;;;;;;;17.95;10.63;;;17.40;67.60;;;;;;10580816;28;20483;-55
2021/11/27 21:29:24;;;;;;;17.45;10.40;;;17.40;67.70;;;;;;10562414;28;20072;-54
2021/11/27 21:34:24;;;;;;;16.05;9.55;;;17.30;67.70;;;;;;10562799;28;20030;-55
2021/11/27 21:39:25;;;;;;;15.15;9.40;;;17.20;67.80;;;;;;10562341;28;20046;-54
2021/11/27 21:44:26;;;;;;;16.00;10.18;;;17.20;67.90;;;;;;10562079;28;20024;-55
2021/11/27 21:49:27;;;;;;;17.40;9.90;;;17.20;67.90;;;;;;10562344;28;20015;-54
2021/11/27 21:54:28;;;;;;;16.73;10.30;;;17.10;67.90;;;;;;10580399;28;20028;-55
2021/11/27 21:59:29;;;;;;;13.00;9.52;;;17.10;67.90;;;;;;10535528;28;20024;-54
2021/11/27 22:04:30;;;;;;;13.15;9.50;;;17.00;68.00;;;;;;10561760;28;20088;-54
2021/11/27 22:09:31;;;;;;;12.10;8.02;;;17.00;68.00;;;;;;10579326;28;20030;-54
2021/11/27 22:14:31;;;;;;;14.02;8.98;;;16.90;68.00;;;;;;10579747;28;20083;-54
2021/11/27 22:19:33;;;;;;;10.57;8.02;;;16.90;68.10;;;;;;10579623;28;20040;-54
2021/11/27 22:24:35;;;;;;;12.85;8.00;;;16.90;68.20;;;;;;10561424;28;20034;-54
2021/11/27 22:29:36;;;;;;;13.75;8.13;;;16.80;68.20;;;;;;10560770;28;20015;-54
2021/11/27 22:34:37;;;;;;;11.52;8.27;;;16.80;68.30;;;;;;10561256;28;20115;-54
2021/11/27 22:39:39;;;;;;;13.55;8.75;;;16.70;68.30;;;;;;10583985;28;20046;-54
2021/11/27 22:44:40;;;;;;;11.73;8.13;;;16.70;68.30;;;;;;10552654;28;20028;-54
2021/11/27 22:49:40;;;;;;;9.35;6.88;;;16.70;68.30;;;;;;10587547;28;20467;-53
2021/11/27 22:54:41;;;;;;;14.65;7.97;;;16.70;68.40;;;;;;10569152;28;20027;-54
2021/11/27 22:59:43;;;;;;;9.98;7.25;;;16.60;68.40;;;;;;10573372;28;20043;-54
2021/11/27 23:04:44;;;;;;;9.18;7.15;;;16.60;68.40;;;;;;10586930;28;20351;-53
2021/11/27 23:09:45;;;;;;;11.25;7.82;;;16.60;68.50;;;;;;10551326;28;20074;-54
2021/11/27 23:14:47;;;;;;;11.25;7.57;;;16.60;68.50;;;;;;10568499;28;20024;-54
2021/11/27 23:20:07;;;;;;;11.93;8.23;;;16.50;68.40;;;;;;10585883;28;20134;-54
2021/11/27 23:25:10;;;;;;;11.63;7.18;;;16.50;68.40;;;;;;10570716;28;20035;-60
2021/11/27 23:30:12;;;;;;;10.85;7.25;;;16.50;68.50;;;;;;10567867;28;20024;-54
2021/11/27 23:35:14;;;;;;;9.82;7.07;;;16.50;68.50;;;;;;10567767;28;20400;-54
2021/11/27 23:40:17;;;;;;;11.85;6.43;;;16.40;68.50;;;;;;10565476;28;20499;-54
2021/11/27 23:45:19;;;;;;;8.35;6.10;;;16.40;68.60;;;;;;10564897;28;20034;-53
2021/11/27 23:50:21;;;;;;;8.80;6.88;;;16.40;68.50;;;;;;10582478;28;20031;-55
2021/11/27 23:55:29;;;;;;;11.65;6.85;;;16.30;68.50;;;;;;10564758;28;20034;-54
